Time;durP1;ratioP1;P1;durP2;ratioP2;P2;SDS_P1;SDS_P2;PMS_P1;PMS_P2;Temp;Humidity;BMP_temperature;BMP_pressure;BME280_temperature;BME280_humidity;BME280_pressure;Samples;Min_cycle;Max_cycle;Signal;HPM_P1;HPM_P2
2024/02/25 00:00:14;;;;;;;4.90;3.15;;;5.80;99.90;;;;;;5109988;27;20035;-63
2024/02/25 00:02:41;;;;;;;4.22;2.95;;;5.80;99.90;;;;;;5110280;27;20032;-63
2024/02/25 00:05:07;;;;;;;7.43;3.17;;;5.80;99.90;;;;;;5108920;28;20055;-62
2024/02/25 00:07:33;;;;;;;4.80;3.53;;;5.80;99.90;;;;;;5085986;28;20051;-63
2024/02/25 00:09:59;;;;;;;8.05;3.25;;;5.80;99.90;;;;;;5112652;28;20047;-62
2024/02/25 00:12:25;;;;;;;6.00;3.47;;;5.80;99.90;;;;;;5116184;27;20039;-62
2024/02/25 00:14:51;;;;;;;7.63;3.35;;;5.70;99.90;;;;;;5115200;28;20046;-62
2024/02/25 00:17:17;;;;;;;6.90;3.25;;;5.80;99.90;;;;;;5113076;28;20039;-62
2024/02/25 00:19:42;;;;;;;7.25;3.40;;;5.80;99.90;;;;;;5106444;28;20104;-63
2024/02/25 00:22:08;;;;;;;6.38;3.28;;;5.80;99.90;;;;;;5110347;27;20562;-62
2024/02/25 00:24:34;;;;;;;6.15;3.20;;;5.80;99.90;;;;;;5118995;28;20466;-62
2024/02/25 00:26:59;;;;;;;5.47;3.17;;;5.80;99.90;;;;;;5114700;27;20070;-62
2024/02/25 00:29:25;;;;;;;5.60;3.40;;;5.70;99.90;;;;;;5119724;27;20035;-62
2024/02/25 00:31:51;;;;;;;6.38;3.17;;;5.70;99.90;;;;;;5114342;27;20051;-62
2024/02/25 00:34:17;;;;;;;4.65;3.25;;;5.70;99.90;;;;;;5118164;27;20042;-63
2024/02/25 00:36:42;;;;;;;7.88;3.55;;;5.70;99.90;;;;;;5124464;27;20043;-62
2024/02/25 00:39:08;;;;;;;9.40;4.72;;;5.70;99.90;;;;;;5116135;27;20053;-62
2024/02/25 00:41:34;;;;;;;6.57;3.25;;;5.70;99.90;;;;;;5121507;27;20035;-63
2024/02/25 00:44:00;;;;;;;5.82;3.30;;;5.70;99.90;;;;;;5120801;27;20046;-62
2024/02/25 00:46:25;;;;;;;7.78;3.40;;;5.70;99.90;;;;;;5120447;27;20049;-62
2024/02/25 00:48:51;;;;;;;7.13;3.40;;;5.70;99.90;;;;;;5119399;27;20500;-62
2024/02/25 00:51:17;;;;;;;3.92;3.08;;;5.70;99.90;;;;;;5110387;27;20031;-62
2024/02/25 00:53:43;;;;;;;5.55;3.00;;;5.70;99.90;;;;;;5120606;27;20486;-62
2024/02/25 00:56:08;;;;;;;4.03;3.30;;;5.60;99.90;;;;;;5114834;27;20043;-62
2024/02/25 00:58:35;;;;;;;4.28;3.38;;;5.60;99.90;;;;;;5125889;27;20053;-62
2024/02/25 01:01:01;;;;;;;7.90;3.83;;;5.60;99.90;;;;;;5122688;27;20135;-62
2024/02/25 01:03:27;;;;;;;6.28;2.90;;;5.60;99.90;;;;;;5109100;27;20126;-62
2024/02/25 01:05:53;;;;;;;5.22;2.92;;;5.60;99.90;;;;;;5120683;27;20084;-62
2024/02/25 01:08:19;;;;;;;4.82;3.08;;;5.60;99.90;;;;;;5114748;27;20054;-62
2024/02/25 01:10:44;;;;;;;3.63;2.95;;;5.60;99.90;;;;;;5115455;27;20043;-62
2024/02/25 01:13:10;;;;;;;9.25;3.78;;;5.50;99.90;;;;;;5116033;27;20043;-62
2024/02/25 01:15:36;;;;;;;3.97;2.80;;;5.60;99.90;;;;;;5124170;27;20043;-62
2024/02/25 01:18:02;;;;;;;6.03;2.97;;;5.50;99.90;;;;;;5114403;27;20220;-62
2024/02/25 01:20:27;;;;;;;5.53;3.15;;;5.60;99.90;;;;;;5125795;27;20043;-62
2024/02/25 01:22:53;;;;;;;6.00;3.17;;;5.50;99.90;;;;;;5112768;27;20475;-62
2024/02/25 01:25:19;;;;;;;5.07;2.90;;;5.50;99.90;;;;;;5117725;27;20049;-62
2024/02/25 01:27:45;;;;;;;4.18;2.90;;;5.50;99.90;;;;;;5124245;27;20488;-63
2024/02/25 01:30:13;;;;;;;6.38;3.47;;;5.60;99.90;;;;;;5117563;27;20062;-62
2024/02/25 01:32:39;;;;;;;10.85;3.40;;;5.50;99.90;;;;;;5112995;27;20051;-62
2024/02/25 01:35:06;;;;;;;4.68;3.15;;;5.60;99.90;;;;;;5127173;27;20094;-63
2024/02/25 01:37:31;;;;;;;6.97;3.05;;;5.60;99.90;;;;;;5119078;27;20128;-62
2024/02/25 01:39:57;;;;;;;9.45;4.30;;;5.60;99.90;;;;;;5120308;27;20333;-63
2024/02/25 01:42:23;;;;;;;6.65;3.72;;;5.60;99.90;;;;;;5120592;27;20500;-62
2024/02/25 01:44:58;;;;;;;7.00;3.53;;;5.60;99.90;;;;;;5121577;27;20079;-62
2024/02/25 01:47:24;;;;;;;6.18;3.63;;;5.50;99.90;;;;;;5122314;27;20137;-62
2024/02/25 01:49:50;;;;;;;6.22;3.40;;;5.50;99.90;;;;;;5122809;27;20135;-62
2024/02/25 01:52:18;;;;;;;6.65;3.75;;;5.50;99.90;;;;;;5109176;27;20112;-62
2024/02/25 01:54:44;;;;;;;4.68;3.50;;;5.50;99.90;;;;;;5106650;27;20027;-63
2024/02/25 01:57:11;;;;;;;5.57;3.75;;;5.50;99.90;;;;;;5104740;27;20637;-63
2024/02/25 01:59:37;;;;;;;5.05;3.53;;;5.50;99.90;;;;;;5109351;27;20148;-62
2024/02/25 02:02:03;;;;;;;6.90;3.83;;;5.50;99.90;;;;;;5112078;27;20039;-62
2024/02/25 02:04:28;;;;;;;5.63;4.47;;;5.50;99.90;;;;;;5121809;27;20057;-62
2024/02/25 02:06:56;;;;;;;6.88;4.05;;;5.50;99.90;;;;;;5110568;27;20327;-63
2024/02/25 02:09:22;;;;;;;8.75;4.43;;;5.50;99.90;;;;;;5122343;27;20046;-63
2024/02/25 02:11:57;;;;;;;9.52;4.80;;;5.50;99.90;;;;;;5114806;27;20035;-63
2024/02/25 02:14:23;;;;;;;7.90;4.50;;;5.50;99.90;;;;;;5100628;27;20459;-63
2024/02/25 02:16:49;;;;;;;8.35;4.35;;;5.50;99.90;;;;;;5116497;27;20035;-63
2024/02/25 02:19:14;;;;;;;6.97;4.38;;;5.50;99.90;;;;;;5116456;27;20032;-63
2024/02/25 02:21:40;;;;;;;6.40;4.05;;;5.40;99.90;;;;;;5106384;27;20183;-63
2024/02/25 02:24:06;;;;;;;6.32;4.65;;;5.40;99.90;;;;;;5120029;27;20027;-63
2024/02/25 02:26:32;;;;;;;6.40;4.60;;;5.30;99.90;;;;;;5108890;27;20027;-63
2024/02/25 02:28:58;;;;;;;7.40;4.38;;;5.50;99.90;;;;;;5114742;27;20054;-63
2024/02/25 02:31:24;;;;;;;6.95;4.15;;;5.50;99.90;;;;;;5114517;27;20035;-63
2024/02/25 02:33:51;;;;;;;7.10;4.53;;;5.50;99.90;;;;;;5117135;27;20034;-63
2024/02/25 02:36:17;;;;;;;7.13;4.47;;;5.50;99.90;;;;;;5122844;27;20527;-63
2024/02/25 02:38:43;;;;;;;7.45;4.07;;;5.50;99.90;;;;;;5118584;27;20119;-63
2024/02/25 02:41:10;;;;;;;4.35;3.70;;;5.50;99.90;;;;;;5120785;27;20679;-63
2024/02/25 02:43:36;;;;;;;6.78;4.13;;;5.50;99.90;;;;;;5120954;27;20035;-63
2024/02/25 02:46:03;;;;;;;5.90;4.20;;;5.50;99.90;;;;;;5120102;27;20039;-63
2024/02/25 02:48:28;;;;;;;5.45;4.22;;;5.40;99.90;;;;;;5118584;27;20031;-63
2024/02/25 02:50:56;;;;;;;5.95;4.00;;;5.50;99.90;;;;;;5123802;27;20520;-63
2024/02/25 02:53:21;;;;;;;7.32;3.90;;;5.50;99.90;;;;;;5121424;27;20039;-63
2024/02/25 02:55:47;;;;;;;6.13;3.83;;;5.50;99.90;;;;;;5120664;27;20347;-63
2024/02/25 02:58:13;;;;;;;7.18;4.47;;;5.50;99.90;;;;;;5106151;27;20042;-63
2024/02/25 03:00:39;;;;;;;6.38;3.95;;;5.50;99.90;;;;;;5117252;27;20458;-63
2024/02/25 03:03:05;;;;;;;6.18;4.18;;;5.50;99.90;;;;;;5111900;27;20434;-63
2024/02/25 03:05:30;;;;;;;8.30;3.67;;;5.50;99.90;;;;;;5109931;27;20532;-62
2024/02/25 03:07:56;;;;;;;6.85;4.13;;;5.50;99.90;;;;;;5116175;27;20087;-63
2024/02/25 03:10:22;;;;;;;5.20;3.55;;;5.40;99.90;;;;;;5121306;27;20042;-63
2024/02/25 03:12:48;;;;;;;7.20;3.78;;;5.50;99.90;;;;;;5120556;27;20065;-63
2024/02/25 03:15:13;;;;;;;4.97;3.70;;;5.50;99.90;;;;;;5114076;27;20097;-62
2024/02/25 03:17:40;;;;;;;5.25;3.35;;;5.50;99.90;;;;;;5119651;27;20626;-63
2024/02/25 03:20:10;;;;;;;5.80;3.75;;;5.50;99.90;;;;;;5117429;27;20146;-63
2024/02/25 03:22:36;;;;;;;5.40;3.50;;;5.50;99.90;;;;;;5115473;27;20565;-63
2024/02/25 03:25:08;;;;;;;5.07;3.10;;;5.50;99.90;;;;;;5114910;27;20070;-64
2024/02/25 03:27:36;;;;;;;6.28;3.25;;;5.50;99.90;;;;;;5122874;27;20043;-63
2024/02/25 03:30:05;;;;;;;6.22;3.25;;;5.50;99.90;;;;;;5117762;27;20055;-63
2024/02/25 03:32:31;;;;;;;6.50;3.50;;;5.50;99.90;;;;;;5112495;27;20119;-63
2024/02/25 03:34:57;;;;;;;4.80;3.33;;;5.50;99.90;;;;;;5124659;27;20514;-63
2024/02/25 03:37:23;;;;;;;5.60;3.20;;;5.50;99.90;;;;;;5115433;28;20036;-63
2024/02/25 03:39:48;;;;;;;7.25;3.55;;;5.50;99.90;;;;;;5105252;28;20032;-64
2024/02/25 03:42:14;;;;;;;4.95;3.47;;;5.50;99.90;;;;;;5113170;27;20039;-63
2024/02/25 03:44:42;;;;;;;5.75;3.20;;;5.50;99.90;;;;;;5121858;27;20913;-63
2024/02/25 03:47:08;;;;;;;9.05;3.63;;;5.50;99.90;;;;;;5109203;27;20172;-62
2024/02/25 03:49:34;;;;;;;4.72;3.35;;;5.50;99.90;;;;;;5116493;28;20592;-63
2024/02/25 03:52:00;;;;;;;9.57;4.47;;;5.50;99.90;;;;;;5121843;27;20338;-63
2024/02/25 03:54:25;;;;;;;5.07;3.47;;;5.50;99.90;;;;;;5115946;27;20440;-62
2024/02/25 03:56:51;;;;;;;7.47;4.25;;;5.40;99.90;;;;;;5115407;27;20075;-62
2024/02/25 03:59:17;;;;;;;7.28;3.90;;;5.50;99.90;;;;;;5107161;28;20035;-63
2024/02/25 04:01:43;;;;;;;6.47;3.90;;;5.40;99.90;;;;;;5111101;28;20473;-62
2024/02/25 04:04:08;;;;;;;7.90;3.42;;;5.40;99.90;;;;;;5115338;28;20039;-62
2024/02/25 04:06:34;;;;;;;5.03;3.85;;;5.40;99.90;;;;;;5113761;27;20116;-63
2024/02/25 04:09:00;;;;;;;6.63;3.70;;;5.40;99.90;;;;;;5117996;27;20042;-62
2024/02/25 04:11:25;;;;;;;5.90;3.83;;;5.30;99.90;;;;;;5117437;27;20043;-62
2024/02/25 04:13:51;;;;;;;6.75;3.70;;;5.40;99.90;;;;;;5118382;28;20074;-62
2024/02/25 04:16:17;;;;;;;7.25;3.92;;;5.30;99.90;;;;;;5112287;27;20057;-63
2024/02/25 04:18:43;;;;;;;7.72;4.20;;;5.30;99.90;;;;;;5119612;27;20437;-62
2024/02/25 04:21:09;;;;;;;11.23;4.22;;;5.30;99.90;;;;;;5120573;27;20679;-62
2024/02/25 04:23:34;;;;;;;4.25;3.65;;;5.30;99.90;;;;;;5118910;27;20039;-62
2024/02/25 04:26:00;;;;;;;4.88;3.38;;;5.40;99.90;;;;;;5122701;27;20043;-63
2024/02/25 04:28:28;;;;;;;6.50;4.20;;;5.30;99.90;;;;;;5124239;27;20055;-63
2024/02/25 04:30:54;;;;;;;6.45;4.20;;;5.40;99.90;;;;;;5109047;27;20422;-63
2024/02/25 04:33:19;;;;;;;4.72;3.80;;;5.40;99.90;;;;;;5112421;27;20069;-63
2024/02/25 04:35:45;;;;;;;5.68;4.15;;;5.40;99.90;;;;;;5121673;27;20043;-63
2024/02/25 04:38:12;;;;;;;8.80;4.20;;;5.40;99.90;;;;;;5122936;27;20536;-63
2024/02/25 04:40:39;;;;;;;6.20;4.10;;;5.40;99.90;;;;;;5114367;27;20046;-63
2024/02/25 04:43:04;;;;;;;4.85;3.97;;;5.40;99.90;;;;;;5112405;27;20031;-64
2024/02/25 04:45:30;;;;;;;5.57;3.60;;;5.40;99.90;;;;;;5118548;27;20517;-63
2024/02/25 04:47:56;;;;;;;6.10;3.92;;;5.40;99.90;;;;;;5112166;27;20462;-63
2024/02/25 04:50:21;;;;;;;6.13;4.38;;;5.40;99.90;;;;;;5124089;27;20066;-63
2024/02/25 04:52:47;;;;;;;4.82;3.75;;;5.40;99.90;;;;;;5118225;27;20072;-64
2024/02/25 04:55:14;;;;;;;5.03;4.03;;;5.40;99.90;;;;;;5117889;27;20122;-63
2024/02/25 04:57:39;;;;;;;5.03;3.97;;;5.40;99.90;;;;;;5116149;27;20031;-63
2024/02/25 05:00:06;;;;;;;7.03;4.20;;;5.40;99.90;;;;;;5111459;27;20043;-64
2024/02/25 05:02:32;;;;;;;5.10;4.32;;;5.40;99.90;;;;;;5124125;27;20039;-63
2024/02/25 05:04:57;;;;;;;6.88;4.32;;;5.40;99.90;;;;;;5123481;27;20572;-63
2024/02/25 05:07:23;;;;;;;7.85;4.55;;;5.40;99.90;;;;;;5123400;27;20043;-63
2024/02/25 05:09:49;;;;;;;11.07;4.70;;;5.50;99.90;;;;;;5121440;27;20043;-63
2024/02/25 05:12:16;;;;;;;7.28;4.63;;;5.50;99.90;;;;;;5115223;27;20648;-63
2024/02/25 05:14:42;;;;;;;7.85;4.82;;;5.40;99.90;;;;;;5116388;27;20341;-63
2024/02/25 05:17:08;;;;;;;6.68;4.72;;;5.50;99.90;;;;;;5121849;27;20047;-64
2024/02/25 05:19:34;;;;;;;6.97;4.82;;;5.40;99.90;;;;;;5118859;27;20607;-63
2024/02/25 05:21:59;;;;;;;8.70;4.80;;;5.40;99.90;;;;;;5116042;27;20035;-63
2024/02/25 05:24:25;;;;;;;8.27;5.10;;;5.40;99.90;;;;;;5119423;27;20038;-63
2024/02/25 05:26:51;;;;;;;5.88;4.78;;;5.50;99.90;;;;;;5120679;27;20122;-63
2024/02/25 05:29:16;;;;;;;11.88;5.68;;;5.40;99.90;;;;;;5110073;27;20080;-63
2024/02/25 05:31:42;;;;;;;7.20;5.20;;;5.40;99.90;;;;;;5114641;27;20091;-63
2024/02/25 05:34:08;;;;;;;8.18;6.03;;;5.40;99.90;;;;;;5113086;27;20731;-63
2024/02/25 05:36:33;;;;;;;7.35;5.45;;;5.50;99.90;;;;;;5117766;27;20262;-63
2024/02/25 05:38:59;;;;;;;6.45;5.30;;;5.50;99.90;;;;;;5120467;27;20103;-63
2024/02/25 05:41:25;;;;;;;8.68;6.20;;;5.50;99.90;;;;;;5109445;27;20046;-63
2024/02/25 05:43:50;;;;;;;11.32;5.75;;;5.40;99.90;;;;;;5118842;27;20035;-63
2024/02/25 05:46:16;;;;;;;7.03;5.28;;;5.50;99.90;;;;;;5118086;27;20500;-63
2024/02/25 05:48:42;;;;;;;8.75;6.47;;;5.50;99.90;;;;;;5114569;27;20084;-63
2024/02/25 05:51:08;;;;;;;6.95;5.75;;;5.60;99.90;;;;;;5120368;27;20045;-63
2024/02/25 05:53:33;;;;;;;6.25;5.63;;;5.50;99.90;;;;;;5118631;27;20130;-63
2024/02/25 05:55:59;;;;;;;9.30;6.00;;;5.50;99.90;;;;;;5125905;27;20047;-64
2024/02/25 05:58:25;;;;;;;8.10;5.72;;;5.50;99.90;;;;;;5127313;27;20441;-64
2024/02/25 06:00:50;;;;;;;10.25;6.30;;;5.50;99.90;;;;;;5131189;27;20630;-64
2024/02/25 06:03:16;;;;;;;11.55;6.32;;;5.60;99.90;;;;;;5127596;27;20038;-63
2024/02/25 06:05:42;;;;;;;8.73;6.38;;;5.50;99.90;;;;;;5130172;27;20035;-63
2024/02/25 06:08:08;;;;;;;8.75;6.03;;;5.60;99.90;;;;;;5127682;27;20569;-63
2024/02/25 06:10:34;;;;;;;8.07;6.13;;;5.60;99.90;;;;;;5129665;27;20130;-63
2024/02/25 06:13:00;;;;;;;9.05;6.65;;;5.50;99.90;;;;;;5125998;27;20058;-64
2024/02/25 06:15:26;;;;;;;7.28;5.75;;;5.60;99.90;;;;;;5127577;27;20195;-63
2024/02/25 06:17:52;;;;;;;9.30;5.97;;;5.60;99.90;;;;;;5130352;27;20047;-63
2024/02/25 06:20:17;;;;;;;11.18;7.68;;;5.60;99.90;;;;;;5129154;27;20035;-64
2024/02/25 06:22:43;;;;;;;10.10;6.47;;;5.60;99.90;;;;;;5124806;27;20042;-63
2024/02/25 06:25:09;;;;;;;10.07;6.85;;;5.60;99.90;;;;;;5128638;27;20045;-64
2024/02/25 06:27:36;;;;;;;9.98;6.78;;;5.60;99.90;;;;;;5128628;27;20360;-64
2024/02/25 06:30:04;;;;;;;8.35;5.75;;;5.60;99.90;;;;;;5145858;27;20038;-64
2024/02/25 06:32:31;;;;;;;11.15;6.57;;;5.60;99.90;;;;;;5129000;27;20117;-64
2024/02/25 06:34:58;;;;;;;8.65;6.80;;;5.60;99.90;;;;;;5127860;27;20043;-64
2024/02/25 06:37:26;;;;;;;9.95;6.25;;;5.60;99.90;;;;;;5130160;27;20046;-65
2024/02/25 06:39:52;;;;;;;8.23;5.85;;;5.60;99.90;;;;;;5127396;27;20034;-64
2024/02/25 06:42:18;;;;;;;7.10;6.07;;;5.70;99.90;;;;;;5118488;27;20035;-64
2024/02/25 06:44:44;;;;;;;8.35;6.57;;;5.60;99.90;;;;;;5122735;27;20031;-63
2024/02/25 06:47:10;;;;;;;7.47;6.63;;;5.70;99.90;;;;;;5127966;27;20057;-63
2024/02/25 06:49:36;;;;;;;6.95;5.60;;;5.70;99.90;;;;;;5125344;27;20036;-63
2024/02/25 06:52:04;;;;;;;9.80;6.95;;;5.80;99.90;;;;;;5127802;27;20063;-63
2024/02/25 06:54:31;;;;;;;9.35;6.50;;;5.70;99.90;;;;;;5126285;27;20039;-63
2024/02/25 06:56:57;;;;;;;9.20;6.65;;;5.80;99.90;;;;;;5126158;27;20045;-64
2024/02/25 06:59:23;;;;;;;9.85;6.70;;;5.80;99.90;;;;;;5128986;27;20039;-64
2024/02/25 07:01:49;;;;;;;8.48;7.00;;;5.80;99.90;;;;;;5125415;27;20443;-64
2024/02/25 07:04:15;;;;;;;9.25;7.10;;;5.80;99.90;;;;;;5124387;27;20450;-64
2024/02/25 07:06:41;;;;;;;9.57;6.75;;;5.80;99.90;;;;;;5126212;27;20038;-64
2024/02/25 07:09:07;;;;;;;8.18;6.30;;;5.80;99.90;;;;;;5127748;27;20570;-64
2024/02/25 07:11:34;;;;;;;11.05;6.43;;;5.80;99.90;;;;;;5123560;27;20035;-64
2024/02/25 07:14:00;;;;;;;10.88;6.57;;;5.80;99.90;;;;;;5123495;27;20043;-64
2024/02/25 07:16:26;;;;;;;12.07;6.93;;;5.70;99.90;;;;;;5128996;27;20061;-63
2024/02/25 07:18:52;;;;;;;8.65;6.38;;;5.80;99.90;;;;;;5126518;27;20046;-64
2024/02/25 07:21:17;;;;;;;9.50;6.47;;;5.70;99.90;;;;;;5127621;27;20035;-64
2024/02/25 07:23:43;;;;;;;6.95;6.22;;;5.80;99.90;;;;;;5126762;27;20035;-63
2024/02/25 07:26:11;;;;;;;8.27;6.25;;;5.80;99.90;;;;;;5127840;27;20064;-64
2024/02/25 07:28:41;;;;;;;8.82;5.78;;;6.00;99.90;;;;;;5126663;27;20038;-64
2024/02/25 07:31:17;;;;;;;9.68;6.53;;;5.90;99.90;;;;;;5126578;27;20050;-64
2024/02/25 07:33:44;;;;;;;7.00;6.10;;;5.90;99.90;;;;;;5127736;27;20038;-64
2024/02/25 07:36:14;;;;;;;7.43;5.85;;;5.90;99.90;;;;;;5130436;27;20070;-63
2024/02/25 07:38:40;;;;;;;7.35;6.05;;;5.90;99.90;;;;;;5127619;27;20077;-63
2024/02/25 07:41:07;;;;;;;9.35;6.03;;;5.90;99.90;;;;;;5127663;27;20050;-64
2024/02/25 07:43:34;;;;;;;7.00;5.78;;;5.90;99.90;;;;;;5128113;27;20031;-64
2024/02/25 07:46:00;;;;;;;7.43;6.28;;;5.90;99.90;;;;;;5127450;27;20581;-64
2024/02/25 07:48:26;;;;;;;6.80;6.10;;;5.90;99.90;;;;;;5126720;27;20035;-63
2024/02/25 07:50:51;;;;;;;10.20;6.43;;;5.90;99.90;;;;;;5131240;27;20039;-64
2024/02/25 07:53:17;;;;;;;7.30;5.22;;;5.90;99.90;;;;;;5133340;27;20423;-63
2024/02/25 07:55:43;;;;;;;8.05;5.93;;;6.00;99.90;;;;;;5135458;27;20034;-63
2024/02/25 07:58:09;;;;;;;7.40;5.22;;;6.00;99.90;;;;;;5127535;27;20096;-63
2024/02/25 08:00:34;;;;;;;5.85;5.18;;;6.00;99.90;;;;;;5129784;27;20080;-63
2024/02/25 08:03:01;;;;;;;6.85;5.22;;;6.00;99.90;;;;;;5127878;27;20588;-65
2024/02/25 08:05:27;;;;;;;7.80;5.95;;;6.00;99.90;;;;;;5129082;27;20065;-63
2024/02/25 08:07:53;;;;;;;5.47;4.90;;;6.10;99.90;;;;;;5130548;27;20489;-63
2024/02/25 08:10:20;;;;;;;8.68;5.90;;;6.20;99.90;;;;;;5129742;27;20228;-63
2024/02/25 08:12:46;;;;;;;6.45;4.78;;;6.10;99.90;;;;;;5126789;27;20034;-62
2024/02/25 08:15:12;;;;;;;11.18;5.72;;;6.10;99.90;;;;;;5127561;27;20039;-63
2024/02/25 08:17:38;;;;;;;6.07;5.18;;;6.20;99.90;;;;;;5131214;27;20440;-63
2024/02/25 08:20:05;;;;;;;6.30;5.43;;;6.30;99.90;;;;;;5128303;27;20820;-63
2024/02/25 08:22:32;;;;;;;7.68;5.35;;;6.30;99.90;;;;;;5128904;27;20607;-64
2024/02/25 08:24:59;;;;;;;8.05;5.32;;;6.30;99.90;;;;;;5128659;27;20042;-63
2024/02/25 08:27:28;;;;;;;7.43;5.25;;;6.40;99.90;;;;;;5127965;27;20043;-63
2024/02/25 08:29:55;;;;;;;6.82;5.63;;;6.40;99.90;;;;;;5131733;27;20046;-63
2024/02/25 08:32:21;;;;;;;6.15;5.55;;;6.40;99.90;;;;;;5129937;27;20043;-63
2024/02/25 08:34:53;;;;;;;6.45;5.72;;;6.40;99.90;;;;;;5126226;27;20031;-63
2024/02/25 08:37:20;;;;;;;5.47;4.93;;;6.50;99.90;;;;;;5128995;27;20083;-63
2024/02/25 08:39:46;;;;;;;6.63;5.43;;;6.50;99.90;;;;;;5130578;27;20046;-63
2024/02/25 08:42:12;;;;;;;6.15;5.00;;;6.50;99.90;;;;;;5130194;27;20047;-63
2024/02/25 08:44:37;;;;;;;6.30;5.40;;;6.60;99.90;;;;;;5132800;27;20031;-63
2024/02/25 08:47:03;;;;;;;6.70;5.97;;;6.60;99.90;;;;;;5133291;27;20122;-62
2024/02/25 08:49:29;;;;;;;6.35;5.43;;;6.60;99.90;;;;;;5129128;27;20046;-63
2024/02/25 08:51:55;;;;;;;6.20;5.35;;;6.60;99.90;;;;;;5127235;27;20095;-63
2024/02/25 08:54:20;;;;;;;9.18;5.60;;;6.70;99.90;;;;;;5131866;27;20045;-63
2024/02/25 08:56:46;;;;;;;6.75;5.50;;;6.70;99.90;;;;;;5129885;27;20034;-63
2024/02/25 08:59:12;;;;;;;7.85;5.45;;;6.70;99.90;;;;;;5128982;27;20099;-63
2024/02/25 09:01:38;;;;;;;6.63;5.72;;;6.70;99.90;;;;;;5129648;27;20432;-63
2024/02/25 09:04:03;;;;;;;7.38;5.85;;;6.80;99.90;;;;;;5130445;27;20146;-63
2024/02/25 09:06:29;;;;;;;7.45;6.32;;;6.80;99.90;;;;;;5126065;27;20035;-63
2024/02/25 09:08:57;;;;;;;6.95;6.13;;;6.80;99.90;;;;;;5129439;27;20043;-63
2024/02/25 09:11:23;;;;;;;8.65;6.10;;;6.80;99.90;;;;;;5127716;27;20113;-63
2024/02/25 09:13:51;;;;;;;8.98;6.70;;;6.90;99.90;;;;;;5126181;27;20035;-63
2024/02/25 09:16:17;;;;;;;6.28;5.53;;;6.90;99.90;;;;;;5129089;27;20086;-63
2024/02/25 09:18:43;;;;;;;7.88;6.10;;;7.00;99.90;;;;;;5129674;27;20043;-63
2024/02/25 09:21:09;;;;;;;6.50;5.80;;;7.00;99.90;;;;;;5128740;27;20988;-63
2024/02/25 09:23:35;;;;;;;8.68;6.60;;;7.10;99.90;;;;;;5128035;27;20038;-63
2024/02/25 09:26:00;;;;;;;8.38;7.05;;;7.30;99.90;;;;;;5128875;27;20042;-63
2024/02/25 09:28:26;;;;;;;7.75;6.80;;;7.10;99.90;;;;;;5131005;27;20046;-63
2024/02/25 09:30:52;;;;;;;6.82;6.13;;;7.10;99.90;;;;;;5127023;27;20413;-63
2024/02/25 09:33:19;;;;;;;7.55;6.28;;;7.10;99.90;;;;;;5125375;27;20150;-63
2024/02/25 09:35:45;;;;;;;7.95;6.78;;;7.10;99.90;;;;;;5130201;27;20052;-63
2024/02/25 09:38:11;;;;;;;9.15;7.05;;;7.10;99.90;;;;;;5125139;27;20148;-63
2024/02/25 09:40:38;;;;;;;7.82;6.65;;;7.10;99.90;;;;;;5123800;27;20046;-63
2024/02/25 09:43:11;;;;;;;7.63;6.30;;;7.10;99.90;;;;;;5126599;27;20035;-63
2024/02/25 09:45:41;;;;;;;11.63;7.00;;;7.20;99.90;;;;;;5130870;27;20088;-63
2024/02/25 09:48:10;;;;;;;7.50;6.70;;;7.20;99.90;;;;;;5128621;27;20046;-63
2024/02/25 09:50:37;;;;;;;9.93;8.07;;;7.30;99.90;;;;;;5129491;27;20151;-63
2024/02/25 09:53:04;;;;;;;7.95;7.05;;;7.30;99.90;;;;;;5128343;27;20039;-64
2024/02/25 09:55:30;;;;;;;8.57;7.43;;;7.30;99.90;;;;;;5130972;27;20062;-63
2024/02/25 09:57:55;;;;;;;9.40;7.05;;;6.80;99.90;;;;;;5126746;27;20478;-63
2024/02/25 10:00:21;;;;;;;7.70;6.90;;;7.30;99.90;;;;;;5131458;27;20046;-63
2024/02/25 10:02:47;;;;;;;10.43;7.38;;;7.20;99.90;;;;;;5130398;27;20438;-63
2024/02/25 10:05:15;;;;;;;8.65;7.43;;;7.60;99.90;;;;;;5127313;27;20034;-63
2024/02/25 10:07:41;;;;;;;8.90;8.00;;;7.30;99.90;;;;;;5125407;27;20115;-63
2024/02/25 10:10:08;;;;;;;9.93;7.40;;;7.30;99.90;;;;;;5127404;27;20039;-63
2024/02/25 10:12:34;;;;;;;10.13;8.07;;;7.30;99.90;;;;;;5125248;27;20039;-63
2024/02/25 10:15:00;;;;;;;9.73;7.80;;;7.40;99.90;;;;;;5123714;27;20390;-63
2024/02/25 10:17:26;;;;;;;9.38;8.05;;;7.30;99.90;;;;;;5129992;27;20455;-63
2024/02/25 10:20:00;;;;;;;8.38;7.40;;;7.40;99.90;;;;;;5130022;27;20190;-62
2024/02/25 10:22:29;;;;;;;8.55;7.65;;;7.40;99.90;;;;;;5128246;27;20042;-62
2024/02/25 10:25:05;;;;;;;10.85;8.55;;;7.40;99.90;;;;;;5125297;27;20039;-62
2024/02/25 10:27:32;;;;;;;8.60;7.78;;;7.40;99.90;;;;;;5130727;27;20039;-62
2024/02/25 10:29:59;;;;;;;8.90;7.47;;;7.40;99.90;;;;;;5124602;27;20159;-62
2024/02/25 10:32:30;;;;;;;9.63;8.07;;;7.40;99.90;;;;;;5128717;27;20039;-62
2024/02/25 10:34:58;;;;;;;9.85;8.10;;;7.40;99.90;;;;;;5129868;27;20786;-62
2024/02/25 10:37:25;;;;;;;10.23;8.13;;;7.40;99.90;;;;;;5123088;27;20045;-62
2024/02/25 10:39:53;;;;;;;9.93;8.23;;;7.60;99.90;;;;;;5128576;27;20075;-63
2024/02/25 10:42:24;;;;;;;9.30;7.90;;;7.60;99.90;;;;;;5126877;27;20066;-62
2024/02/25 10:44:53;;;;;;;9.27;7.80;;;7.60;99.90;;;;;;5127866;27;20027;-62
2024/02/25 10:47:20;;;;;;;10.95;7.97;;;7.60;99.90;;;;;;5127967;27;20149;-62
2024/02/25 10:49:46;;;;;;;9.80;8.75;;;7.70;99.90;;;;;;5129562;27;20127;-62
2024/02/25 10:52:14;;;;;;;10.25;8.52;;;7.70;99.90;;;;;;5128008;27;20046;-62
2024/02/25 10:54:46;;;;;;;8.40;7.18;;;7.90;99.90;;;;;;5124422;27;20031;-62
2024/02/25 10:57:14;;;;;;;9.05;7.95;;;7.90;99.90;;;;;;5127118;27;20050;-62
2024/02/25 10:59:45;;;;;;;9.75;7.63;;;7.90;99.90;;;;;;5129670;27;20035;-62
2024/02/25 11:02:12;;;;;;;9.18;8.27;;;8.00;99.90;;;;;;5126418;27;20035;-62
2024/02/25 11:04:38;;;;;;;10.13;8.88;;;8.00;99.90;;;;;;5128103;27;20389;-62
2024/02/25 11:07:06;;;;;;;11.25;9.20;;;8.10;99.90;;;;;;5127570;27;20043;-62
2024/02/25 11:09:32;;;;;;;8.82;7.93;;;8.10;99.90;;;;;;5120815;27;20048;-63
2024/02/25 11:12:23;;;;;;;9.93;8.27;;;8.10;99.90;;;;;;5125635;27;20053;-63
2024/02/25 11:15:02;;;;;;;9.27;7.80;;;8.10;99.90;;;;;;5127619;27;20031;-63
2024/02/25 11:17:34;;;;;;;8.93;8.00;;;8.20;99.90;;;;;;5129299;27;20516;-63
2024/02/25 11:20:08;;;;;;;10.05;9.02;;;8.30;99.90;;;;;;5126550;27;20296;-63
2024/02/25 11:22:46;;;;;;;10.88;8.90;;;8.30;99.90;;;;;;5127670;27;20039;-63
2024/02/25 11:25:30;;;;;;;9.65;8.65;;;8.40;99.90;;;;;;5128423;27;20038;-63
2024/02/25 11:27:58;;;;;;;10.20;9.10;;;8.50;99.90;;;;;;5128035;27;20505;-63
2024/02/25 11:30:44;;;;;;;10.23;8.57;;;8.50;99.90;;;;;;5126496;27;20500;-63
2024/02/25 11:33:42;;;;;;;9.95;8.13;;;8.60;99.90;;;;;;5125132;27;20070;-63
2024/02/25 11:36:13;;;;;;;11.10;8.23;;;8.50;99.90;;;;;;5129004;27;20043;-63
2024/02/25 11:38:47;;;;;;;10.65;8.80;;;8.50;99.90;;;;;;5126119;27;20050;-63
2024/02/25 11:41:13;;;;;;;10.23;8.55;;;8.50;99.90;;;;;;5127938;27;20039;-62
2024/02/25 11:43:39;;;;;;;9.55;8.60;;;8.50;99.90;;;;;;5126247;27;20077;-62
2024/02/25 11:46:07;;;;;;;8.82;6.50;;;8.40;99.90;;;;;;5124396;27;20555;-62
2024/02/25 11:48:34;;;;;;;8.82;6.47;;;8.20;99.90;;;;;;5124780;27;20038;-62
2024/02/25 11:51:01;;;;;;;8.10;7.20;;;8.10;99.90;;;;;;5129506;27;20035;-62
2024/02/25 11:53:26;;;;;;;9.32;8.25;;;8.10;99.90;;;;;;5125048;27;20397;-63
2024/02/25 11:55:52;;;;;;;10.55;9.07;;;8.10;99.90;;;;;;5122325;27;20039;-63
2024/02/25 11:58:22;;;;;;;8.40;7.32;;;8.20;99.90;;;;;;5124226;27;20303;-61
2024/02/25 12:00:49;;;;;;;7.93;7.13;;;8.30;99.90;;;;;;5126200;27;20394;-61
2024/02/25 12:03:16;;;;;;;8.52;7.38;;;8.30;99.90;;;;;;5127091;27;20038;-61
2024/02/25 12:05:43;;;;;;;9.07;8.15;;;8.40;99.90;;;;;;5126473;27;20062;-61
2024/02/25 12:08:13;;;;;;;9.82;7.60;;;8.50;99.90;;;;;;5123556;27;20114;-62
2024/02/25 12:10:39;;;;;;;11.40;7.45;;;8.50;99.90;;;;;;5124041;27;20581;-62
2024/02/25 12:13:06;;;;;;;9.00;7.60;;;8.50;99.90;;;;;;5122107;27;20051;-61
2024/02/25 12:15:32;;;;;;;9.05;7.72;;;8.60;99.90;;;;;;5124940;27;20517;-62
2024/02/25 12:18:00;;;;;;;8.75;7.85;;;8.70;99.90;;;;;;5123608;27;20107;-62
2024/02/25 12:20:25;;;;;;;6.88;6.18;;;8.60;99.90;;;;;;5124591;27;20067;-62
2024/02/25 12:22:54;;;;;;;7.28;6.20;;;8.70;99.90;;;;;;5123746;27;20036;-61
2024/02/25 12:25:20;;;;;;;6.47;5.88;;;8.50;99.90;;;;;;5127202;27;20087;-62
2024/02/25 12:27:48;;;;;;;4.10;3.60;;;8.60;99.90;;;;;;5124136;27;20375;-62
2024/02/25 12:30:14;;;;;;;3.08;2.60;;;8.30;99.90;;;;;;5127800;27;20099;-63
2024/02/25 12:32:40;;;;;;;4.25;2.90;;;8.10;99.90;;;;;;5126781;27;20271;-62
2024/02/25 12:35:07;;;;;;;3.58;2.92;;;7.90;99.90;;;;;;5127260;27;20371;-62
2024/02/25 12:37:33;;;;;;;4.15;3.40;;;7.70;99.90;;;;;;5122310;27;20046;-63
2024/02/25 12:39:59;;;;;;;3.78;3.13;;;7.70;99.90;;;;;;5131553;27;20042;-62
2024/02/25 12:42:28;;;;;;;4.57;3.30;;;7.60;99.90;;;;;;5130485;27;20035;-62
2024/02/25 12:44:54;;;;;;;;;;;7.60;99.90;;;;;;5133897;27;20485;-62
2024/02/25 12:47:20;;;;;;;2.83;2.42;;;7.50;99.90;;;;;;5129696;27;19941;-62
2024/02/25 12:49:49;;;;;;;3.65;2.70;;;7.50;99.90;;;;;;5129166;27;20027;-61
2024/02/25 12:52:16;;;;;;;2.90;2.63;;;7.50;99.90;;;;;;5131629;27;20042;-61